createdAt,value
2018-12-29T00:01:41.008Z,24.97
2018-12-29T00:04:07.062Z,25.97
2018-12-29T00:06:33.123Z,25.13
2018-12-29T00:08:59.160Z,26.17
2018-12-29T00:11:25.204Z,26.00
2018-12-29T00:13:51.780Z,25.23
2018-12-29T00:16:17.824Z,25.87
2018-12-29T00:18:43.881Z,27.40
2018-12-29T00:21:10.260Z,25.90
2018-12-29T00:23:36.300Z,25.87
2018-12-29T00:26:02.357Z,24.40
2018-12-29T00:28:28.401Z,25.97
2018-12-29T00:30:54.763Z,25.60
2018-12-29T00:33:21.089Z,27.53
2018-12-29T00:35:47.129Z,27.80
2018-12-29T00:38:13.183Z,28.13
2018-12-29T00:40:39.232Z,25.57
2018-12-29T00:43:05.283Z,26.80
2018-12-29T00:45:31.325Z,24.47
2018-12-29T00:47:57.463Z,27.27
2018-12-29T00:50:23.537Z,24.57
2018-12-29T00:52:49.583Z,24.80
2018-12-29T00:55:15.630Z,23.00
2018-12-29T00:57:41.693Z,22.93
2018-12-29T01:00:07.830Z,24.80
2018-12-29T01:02:33.887Z,22.80
2018-12-29T01:04:59.956Z,24.20
2018-12-29T01:07:25.988Z,25.27
2018-12-29T01:09:52.038Z,24.57
2018-12-29T01:12:18.087Z,25.83
2018-12-29T01:14:44.132Z,25.17
2018-12-29T01:17:10.198Z,25.63
2018-12-29T01:19:36.264Z,24.80
2018-12-29T01:22:02.299Z,26.37
2018-12-29T01:24:28.700Z,25.50
2018-12-29T01:26:54.748Z,23.40
2018-12-29T01:29:21.163Z,22.43
2018-12-29T01:31:47.203Z,24.37
2018-12-29T01:34:13.248Z,23.70
2018-12-29T01:36:39.300Z,25.57
2018-12-29T01:39:05.353Z,23.23
2018-12-29T01:41:31.420Z,23.70
2018-12-29T01:43:57.468Z,24.77
2018-12-29T01:46:23.832Z,24.80
2018-12-29T01:48:50.561Z,24.73
2018-12-29T01:51:16.603Z,24.40
2018-12-29T01:53:47.523Z,23.30
2018-12-29T01:56:13.581Z,24.40
2018-12-29T01:58:39.643Z,24.00
2018-12-29T02:01:05.719Z,24.07
2018-12-29T02:03:31.772Z,23.20
2018-12-29T02:05:57.830Z,24.33
2018-12-29T02:08:24.182Z,22.93
2018-12-29T02:10:50.509Z,24.17
2018-12-29T02:13:16.576Z,23.20
2018-12-29T02:15:42.617Z,24.33
2018-12-29T02:18:09.026Z,23.50
2018-12-29T02:20:35.100Z,23.33
2018-12-29T02:23:01.143Z,25.17
2018-12-29T02:25:27.196Z,23.10
2018-12-29T02:27:53.240Z,25.97
2018-12-29T02:30:19.481Z,23.40
2018-12-29T02:32:45.533Z,24.63
2018-12-29T02:35:11.669Z,22.07
2018-12-29T02:37:37.748Z,23.47
2018-12-29T02:40:04.740Z,22.63
2018-12-29T02:42:30.796Z,22.17
2018-12-29T02:44:56.849Z,22.90
2018-12-29T02:47:22.884Z,22.13
2018-12-29T02:49:48.937Z,25.20
2018-12-29T02:52:14.993Z,21.43
2018-12-29T02:54:41.053Z,22.80
2018-12-29T02:57:07.096Z,23.47
2018-12-29T02:59:33.424Z,22.67
2018-12-29T03:01:59.465Z,24.20
2018-12-29T03:04:25.663Z,24.43
2018-12-29T03:06:51.782Z,23.63
2018-12-29T03:09:18.264Z,22.10
2018-12-29T03:11:44.715Z,22.77
2018-12-29T03:14:10.762Z,22.33
2018-12-29T03:16:36.798Z,22.87
2018-12-29T03:19:02.859Z,23.47
2018-12-29T03:21:29.176Z,22.13
2018-12-29T03:23:55.503Z,21.57
2018-12-29T03:26:21.835Z,22.70
2018-12-29T03:28:47.880Z,23.20
2018-12-29T03:31:13.941Z,21.97
2018-12-29T03:33:40.036Z,22.67
2018-12-29T03:36:06.147Z,24.27
2018-12-29T03:38:32.215Z,23.50
2018-12-29T03:40:58.272Z,21.57
2018-12-29T03:43:24.333Z,23.03
2018-12-29T03:45:50.384Z,22.63
2018-12-29T03:48:16.428Z,22.23
2018-12-29T03:50:42.490Z,21.50
2018-12-29T03:53:08.531Z,23.70
2018-12-29T03:55:34.579Z,23.13
2018-12-29T03:58:00.624Z,23.43
2018-12-29T04:00:26.680Z,21.93
2018-12-29T04:02:52.715Z,22.17
2018-12-29T04:05:18.783Z,22.00
2018-12-29T04:07:45.152Z,22.27
2018-12-29T04:10:13.733Z,22.67
2018-12-29T04:12:40.484Z,21.97
2018-12-29T04:15:06.554Z,20.43
2018-12-29T04:17:32.607Z,22.97
2018-12-29T04:19:58.967Z,22.10
2018-12-29T04:22:25.379Z,22.07
2018-12-29T04:24:51.423Z,20.40
2018-12-29T04:27:17.463Z,21.33
2018-12-29T04:29:43.526Z,20.83
2018-12-29T04:32:09.592Z,22.73
2018-12-29T04:34:35.900Z,21.83
2018-12-29T04:37:01.967Z,21.80
2018-12-29T04:39:28.008Z,23.70
2018-12-29T04:41:54.060Z,23.17
2018-12-29T04:44:20.108Z,23.23
2018-12-29T04:46:46.426Z,22.97
2018-12-29T04:49:12.463Z,23.27
2018-12-29T04:51:38.879Z,22.70
2018-12-29T04:54:05.216Z,23.33
2018-12-29T04:56:31.263Z,24.30
2018-12-29T04:58:57.309Z,25.27
2018-12-29T05:01:23.689Z,23.47
2018-12-29T05:03:49.735Z,23.87
2018-12-29T05:06:15.787Z,23.03
2018-12-29T05:08:42.170Z,23.70
2018-12-29T05:11:08.225Z,24.23
2018-12-29T05:13:34.284Z,24.23
2018-12-29T05:16:00.342Z,22.90
2018-12-29T05:18:26.423Z,24.73
2018-12-29T05:20:52.553Z,23.63
2018-12-29T05:23:18.584Z,23.90
2018-12-29T05:25:44.637Z,24.73
2018-12-29T05:28:10.696Z,25.23
2018-12-29T05:30:36.788Z,23.43
2018-12-29T05:33:02.841Z,25.73
2018-12-29T05:35:29.250Z,23.67
2018-12-29T05:37:55.297Z,22.03
2018-12-29T05:40:21.339Z,22.90
2018-12-29T05:42:47.395Z,23.67
2018-12-29T05:45:13.436Z,27.10
2018-12-29T05:47:39.494Z,23.00
2018-12-29T05:50:05.536Z,22.60
2018-12-29T05:52:31.923Z,23.57
2018-12-29T05:54:57.981Z,22.03
2018-12-29T05:57:24.032Z,22.53
2018-12-29T05:59:50.078Z,21.53
2018-12-29T06:02:16.139Z,23.50
2018-12-29T06:04:42.280Z,22.83
2018-12-29T06:07:08.320Z,23.47
2018-12-29T06:09:34.380Z,21.33
2018-12-29T06:12:00.713Z,21.10
2018-12-29T06:14:26.752Z,20.97
2018-12-29T06:16:52.807Z,18.47
2018-12-29T06:19:18.847Z,18.37
2018-12-29T06:21:45.532Z,19.40
2018-12-29T06:24:11.572Z,18.83
2018-12-29T06:26:37.629Z,19.63
2018-12-29T06:29:04.000Z,19.70
2018-12-29T06:31:30.330Z,21.23
2018-12-29T06:33:56.677Z,19.10
2018-12-29T06:36:22.713Z,21.50
2018-12-29T06:38:49.054Z,18.73
2018-12-29T06:41:15.095Z,19.00
2018-12-29T06:43:41.139Z,18.43
2018-12-29T06:46:07.542Z,18.77
2018-12-29T06:48:33.586Z,18.53
2018-12-29T06:50:59.948Z,18.47
2018-12-29T06:53:26.276Z,20.57
2018-12-29T06:55:52.343Z,20.60
2018-12-29T06:58:18.379Z,20.20
2018-12-29T07:00:44.448Z,22.83
2018-12-29T07:03:10.786Z,20.50
2018-12-29T07:05:36.820Z,20.23
2018-12-29T07:08:03.564Z,19.23
2018-12-29T07:10:29.624Z,18.60
2018-12-29T07:12:55.687Z,18.43
2018-12-29T07:15:21.739Z,20.57
2018-12-29T07:17:47.796Z,20.77
2018-12-29T07:20:13.842Z,18.80
2018-12-29T07:22:39.876Z,21.13
2018-12-29T07:25:05.928Z,20.70
2018-12-29T07:27:31.973Z,21.37
2018-12-29T07:29:58.024Z,18.20
2018-12-29T07:32:24.139Z,20.30
2018-12-29T07:34:50.523Z,20.17
2018-12-29T07:37:16.604Z,19.90
2018-12-29T07:39:42.656Z,19.53
2018-12-29T07:42:08.747Z,19.70
2018-12-29T07:44:34.801Z,18.43
2018-12-29T07:47:00.853Z,19.57
2018-12-29T07:49:26.905Z,18.67
2018-12-29T07:51:52.948Z,19.83
2018-12-29T07:54:18.985Z,19.70
2018-12-29T07:56:45.336Z,21.50
2018-12-29T07:59:11.769Z,19.93
2018-12-29T08:01:37.806Z,19.70
2018-12-29T08:04:03.851Z,20.27
2018-12-29T08:06:29.917Z,19.47
2018-12-29T08:08:55.971Z,18.80
2018-12-29T08:11:22.289Z,19.03
2018-12-29T08:13:48.619Z,19.93
2018-12-29T08:16:14.667Z,21.10
2018-12-29T08:18:40.707Z,19.93
2018-12-29T08:21:07.102Z,20.23
2018-12-29T08:23:33.142Z,20.30
2018-12-29T08:25:59.184Z,19.40
2018-12-29T08:28:25.243Z,19.23
2018-12-29T08:30:51.314Z,19.00
2018-12-29T08:33:17.624Z,18.47
2018-12-29T08:35:43.660Z,17.67
2018-12-29T08:38:09.715Z,17.43
2018-12-29T08:40:35.751Z,17.37
2018-12-29T08:43:01.795Z,18.00
2018-12-29T08:45:27.847Z,18.27
2018-12-29T08:47:53.889Z,19.13
2018-12-29T08:50:19.931Z,17.57
2018-12-29T08:52:46.319Z,18.87
2018-12-29T08:55:12.375Z,18.53
2018-12-29T08:57:38.430Z,17.80
2018-12-29T09:00:06.236Z,18.97
2018-12-29T09:02:32.388Z,17.17
2018-12-29T09:04:58.431Z,19.47
2018-12-29T09:07:24.492Z,19.03
2018-12-29T09:09:50.539Z,19.67
2018-12-29T09:12:16.866Z,19.90
2018-12-29T09:14:43.289Z,17.80
2018-12-29T09:17:12.206Z,19.17
2018-12-29T09:19:37.287Z,19.67
2018-12-29T09:22:03.346Z,19.00
2018-12-29T09:24:29.380Z,19.03
2018-12-29T09:26:55.438Z,19.07
2018-12-29T09:29:21.479Z,19.10
2018-12-29T09:31:47.808Z,18.83
2018-12-29T09:34:14.135Z,19.93
2018-12-29T09:36:40.245Z,20.63
2018-12-29T09:39:06.287Z,19.77
2018-12-29T09:41:32.347Z,19.93
2018-12-29T09:43:58.390Z,20.03
2018-12-29T09:46:24.765Z,19.67
2018-12-29T09:48:51.097Z,20.17
2018-12-29T09:51:17.140Z,18.27
2018-12-29T09:53:43.198Z,19.60
2018-12-29T09:56:09.326Z,20.40
2018-12-29T09:58:35.391Z,20.80
2018-12-29T10:01:01.784Z,19.83
2018-12-29T10:03:27.824Z,20.57
2018-12-29T10:05:53.894Z,20.30
2018-12-29T10:08:20.844Z,21.17
2018-12-29T10:10:47.144Z,22.43
2018-12-29T10:13:13.190Z,20.33
2018-12-29T10:15:39.260Z,20.70
2018-12-29T10:18:05.304Z,21.13
2018-12-29T10:20:31.364Z,22.17
2018-12-29T10:22:57.421Z,20.97
2018-12-29T10:25:23.465Z,21.40
2018-12-29T10:27:49.576Z,21.07
2018-12-29T10:30:15.624Z,21.57
2018-12-29T10:32:41.686Z,21.00
2018-12-29T10:35:07.724Z,20.67
2018-12-29T10:37:33.773Z,21.10
2018-12-29T10:39:59.837Z,22.87
2018-12-29T10:42:25.884Z,23.53
2018-12-29T10:44:51.924Z,23.23
2018-12-29T10:47:17.981Z,24.37
2018-12-29T10:49:44.028Z,22.43
2018-12-29T10:52:10.075Z,20.30
2018-12-29T10:54:36.129Z,20.30
2018-12-29T10:57:02.174Z,22.73
2018-12-29T10:59:28.231Z,21.07
2018-12-29T11:01:54.273Z,23.70
2018-12-29T11:04:20.388Z,23.07
2018-12-29T11:06:46.672Z,22.10
2018-12-29T11:09:12.720Z,22.10
2018-12-29T11:11:38.772Z,23.40
2018-12-29T11:14:04.835Z,23.67
2018-12-29T11:16:30.994Z,23.23
2018-12-29T11:18:57.044Z,22.53
2018-12-29T11:21:23.083Z,22.80
2018-12-29T11:23:49.148Z,22.60
2018-12-29T11:26:15.332Z,22.67
2018-12-29T11:28:41.376Z,21.77
2018-12-29T11:31:07.748Z,24.17
2018-12-29T11:33:34.119Z,20.43
2018-12-29T11:36:00.244Z,21.70
2018-12-29T11:38:26.312Z,21.13
2018-12-29T11:40:52.696Z,21.37
2018-12-29T11:43:18.741Z,21.00
2018-12-29T11:45:44.783Z,21.13
2018-12-29T11:48:11.015Z,20.53
2018-12-29T11:50:37.060Z,21.97
2018-12-29T11:53:03.205Z,21.03
2018-12-29T11:55:29.260Z,20.13
2018-12-29T11:57:55.612Z,19.60
2018-12-29T12:00:21.675Z,19.77
2018-12-29T12:02:47.720Z,20.00
2018-12-29T12:05:13.864Z,18.40
2018-12-29T12:07:39.922Z,19.43
2018-12-29T12:10:06.067Z,17.60
2018-12-29T12:12:32.513Z,18.33
2018-12-29T12:14:58.663Z,18.17
2018-12-29T12:17:24.811Z,18.53
2018-12-29T12:19:50.884Z,18.60
2018-12-29T12:22:16.936Z,18.33
2018-12-29T12:24:42.988Z,19.77
2018-12-29T12:27:09.134Z,18.03
2018-12-29T12:29:35.688Z,16.27
2018-12-29T12:32:01.925Z,17.27
2018-12-29T12:34:28.070Z,18.67
2018-12-29T12:36:54.220Z,18.27
2018-12-29T12:39:20.291Z,19.80
2018-12-29T12:41:46.367Z,18.50
2018-12-29T12:44:12.419Z,20.00
2018-12-29T12:46:39.273Z,19.00
2018-12-29T12:49:05.734Z,17.73
2018-12-29T12:51:31.893Z,17.60
2018-12-29T12:53:57.935Z,16.47
2018-12-29T12:56:24.083Z,19.83
2018-12-29T12:58:50.388Z,19.17
2018-12-29T13:01:16.833Z,18.17
2018-12-29T13:03:42.880Z,17.73
2018-12-29T13:06:08.930Z,17.93
2018-12-29T13:08:34.979Z,19.43
2018-12-29T13:11:01.384Z,17.03
2018-12-29T13:13:27.425Z,17.63
2018-12-29T13:15:53.776Z,16.00
2018-12-29T13:18:19.827Z,16.43
2018-12-29T13:20:45.871Z,17.93
2018-12-29T13:23:11.923Z,18.17
2018-12-29T13:25:37.984Z,18.17
2018-12-29T13:28:04.342Z,18.53
2018-12-29T13:30:30.691Z,18.83
2018-12-29T13:32:57.191Z,17.87
2018-12-29T13:35:23.234Z,18.83
2018-12-29T13:37:49.275Z,17.77
2018-12-29T13:40:15.332Z,19.37
2018-12-29T13:42:41.374Z,18.90
2018-12-29T13:45:07.516Z,20.17
2018-12-29T13:47:33.571Z,18.47
2018-12-29T13:49:59.868Z,18.07
2018-12-29T13:52:26.298Z,18.33
2018-12-29T13:54:52.344Z,17.50
2018-12-29T13:57:18.405Z,18.07
2018-12-29T13:59:44.844Z,17.03
2018-12-29T14:02:10.899Z,16.40
2018-12-29T14:04:37.044Z,17.33
2018-12-29T14:07:03.109Z,16.87
2018-12-29T14:09:29.236Z,15.53
2018-12-29T14:11:55.584Z,15.53
2018-12-29T14:14:21.920Z,16.13
2018-12-29T14:16:47.976Z,16.17
2018-12-29T14:19:14.045Z,15.30
2018-12-29T14:21:40.087Z,15.90
2018-12-29T14:24:06.149Z,17.07
2018-12-29T14:26:32.207Z,16.20
2018-12-29T14:28:58.761Z,15.60
2018-12-29T14:31:24.927Z,16.30
2018-12-29T14:33:50.967Z,16.80
2018-12-29T14:36:17.023Z,17.00
2018-12-29T14:38:43.060Z,16.03
2018-12-29T14:41:09.093Z,16.37
2018-12-29T14:43:35.454Z,17.00
2018-12-29T14:46:01.503Z,17.77
2018-12-29T14:48:27.644Z,18.60
2018-12-29T14:50:53.700Z,17.50
2018-12-29T14:53:19.753Z,16.07
2018-12-29T14:55:46.055Z,17.17
2018-12-29T14:58:12.620Z,18.57
2018-12-29T15:00:38.665Z,17.53
2018-12-29T15:03:04.724Z,17.80
2018-12-29T15:05:30.972Z,18.33
2018-12-29T15:07:57.034Z,17.40
2018-12-29T15:10:23.496Z,17.83
2018-12-29T15:12:49.640Z,19.00
2018-12-29T15:15:15.692Z,17.60
2018-12-29T15:17:41.914Z,18.27
2018-12-29T15:20:08.451Z,16.80
2018-12-29T15:22:34.607Z,16.70
2018-12-29T15:25:00.851Z,16.93
2018-12-29T15:27:26.911Z,17.13
2018-12-29T15:29:52.967Z,17.97
2018-12-29T15:32:19.007Z,17.60
2018-12-29T15:34:45.048Z,17.40
2018-12-29T15:37:11.557Z,17.63
2018-12-29T15:39:37.726Z,16.90
2018-12-29T15:42:03.872Z,18.80
2018-12-29T15:44:30.236Z,17.80
2018-12-29T15:46:56.620Z,17.43
2018-12-29T15:49:22.683Z,18.10
2018-12-29T15:51:48.824Z,16.90
2018-12-29T15:54:14.895Z,18.37
2018-12-29T15:56:41.032Z,17.13
2018-12-29T15:59:07.705Z,17.83
2018-12-29T16:01:33.861Z,17.60
2018-12-29T16:04:00.003Z,18.00
2018-12-29T16:06:26.476Z,17.23
2018-12-29T16:08:52.629Z,17.50
2018-12-29T16:11:25.977Z,18.93
2018-12-29T16:13:47.056Z,18.97
2018-12-29T16:16:13.099Z,17.83
2018-12-29T16:18:39.141Z,20.07
2018-12-29T16:21:05.208Z,20.07
2018-12-29T16:23:31.362Z,18.90
2018-12-29T16:25:57.487Z,18.63
2018-12-29T16:28:23.912Z,19.40
2018-12-29T16:30:49.948Z,22.07
2018-12-29T16:33:16.436Z,20.60
2018-12-29T16:35:42.494Z,19.93
2018-12-29T16:38:08.940Z,20.60
2018-12-29T16:40:35.093Z,21.47
2018-12-29T16:43:01.545Z,21.20
2018-12-29T16:45:27.716Z,21.17
2018-12-29T16:47:53.829Z,21.90
2018-12-29T16:50:19.902Z,20.33
2018-12-29T16:52:46.049Z,23.20
2018-12-29T16:55:12.496Z,21.70
2018-12-29T16:57:38.653Z,22.33
2018-12-29T17:00:06.526Z,22.27
2018-12-29T17:02:32.668Z,23.17
2018-12-29T17:04:59.223Z,23.80
2018-12-29T17:07:25.879Z,24.30
2018-12-29T17:09:52.040Z,24.20
2018-12-29T17:12:18.492Z,26.73
2018-12-29T17:14:44.648Z,25.90
2018-12-29T17:17:11.088Z,25.57
2018-12-29T17:19:37.643Z,26.83
2018-12-29T17:22:03.720Z,27.43
2018-12-29T17:24:29.785Z,26.10
2018-12-29T17:26:55.959Z,26.50
2018-12-29T17:29:22.105Z,24.90
2018-12-29T17:31:48.240Z,27.57
2018-12-29T17:34:14.403Z,25.73
2018-12-29T17:36:42.046Z,25.00
2018-12-29T17:39:08.316Z,25.50
2018-12-29T17:41:34.474Z,25.37
2018-12-29T17:44:00.620Z,25.97
2018-12-29T17:46:27.074Z,26.97
2018-12-29T17:48:53.129Z,25.10
2018-12-29T17:51:19.184Z,25.70
2018-12-29T17:53:48.136Z,24.57
2018-12-29T17:56:13.514Z,25.17
2018-12-29T17:58:39.668Z,25.80
2018-12-29T18:01:05.976Z,23.77
2018-12-29T18:03:32.125Z,26.17
2018-12-29T18:05:58.171Z,23.73
2018-12-29T18:08:24.388Z,25.63
2018-12-29T18:10:50.537Z,24.97
2018-12-29T18:13:16.876Z,24.60
2018-12-29T18:15:43.041Z,22.47
2018-12-29T18:18:09.193Z,24.87
2018-12-29T18:20:35.543Z,24.07
2018-12-29T18:23:01.720Z,22.00
2018-12-29T18:25:27.858Z,22.13
2018-12-29T18:27:54.034Z,21.60
2018-12-29T18:30:20.183Z,21.40
2018-12-29T18:32:46.336Z,18.93
2018-12-29T18:35:12.480Z,18.50
2018-12-29T18:37:38.557Z,16.03
2018-12-29T18:40:05.399Z,14.93
2018-12-29T18:42:31.443Z,14.47
2018-12-29T18:44:57.593Z,14.10
2018-12-29T18:47:23.731Z,13.67
2018-12-29T18:49:49.788Z,12.63
2018-12-29T18:52:16.232Z,13.13
2018-12-29T18:54:42.279Z,12.00
2018-12-29T18:57:08.323Z,11.40
2018-12-29T18:59:34.488Z,11.40
2018-12-29T19:02:00.627Z,10.10
2018-12-29T19:04:26.952Z,9.40
2018-12-29T19:06:53.113Z,9.37
2018-12-29T19:09:19.249Z,8.43
2018-12-29T19:11:45.385Z,8.90
2018-12-29T19:14:12.048Z,8.70
2018-12-29T19:16:38.208Z,8.70
2018-12-29T19:19:04.364Z,8.53
2018-12-29T19:21:30.512Z,8.07
2018-12-29T19:23:56.953Z,7.73
2018-12-29T19:26:23.506Z,7.40
2018-12-29T19:28:50.256Z,6.93
2018-12-29T19:31:16.800Z,5.83
2018-12-29T19:33:42.843Z,6.70
2018-12-29T19:36:08.932Z,5.90
2018-12-29T19:38:35.073Z,5.60
2018-12-29T19:41:01.129Z,5.77
2018-12-29T19:43:27.565Z,5.43
2018-12-29T19:45:53.716Z,5.13
2018-12-29T19:48:19.946Z,5.70
2018-12-29T19:50:46.440Z,5.57
2018-12-29T19:53:12.689Z,4.50
2018-12-29T19:55:38.983Z,4.43
2018-12-29T19:58:05.407Z,4.33
2018-12-29T20:00:31.850Z,3.67
2018-12-29T20:02:57.893Z,4.23
2018-12-29T20:05:24.248Z,4.03
2018-12-29T20:07:50.416Z,4.13
2018-12-29T20:10:16.457Z,3.90
2018-12-29T20:12:43.075Z,3.97
2018-12-29T20:15:09.107Z,3.93
2018-12-29T20:17:35.468Z,4.33
2018-12-29T20:20:01.953Z,4.00
2018-12-29T20:22:28.367Z,4.70
2018-12-29T20:24:54.506Z,4.47
2018-12-29T20:27:20.648Z,3.93
2018-12-29T20:29:46.731Z,3.87
2018-12-29T20:32:13.177Z,4.10
2018-12-29T20:34:39.640Z,5.00
2018-12-29T20:37:05.697Z,3.60
2018-12-29T20:39:32.099Z,3.87
2018-12-29T20:41:58.533Z,4.00
2018-12-29T20:44:24.667Z,3.47
2018-12-29T20:46:50.735Z,3.80
2018-12-29T20:49:16.965Z,2.97
2018-12-29T20:51:43.012Z,4.00
2018-12-29T20:54:09.171Z,4.40
2018-12-29T20:56:35.211Z,3.37
2018-12-29T20:59:01.252Z,4.30
2018-12-29T21:01:27.567Z,4.23
2018-12-29T21:03:53.608Z,4.17
2018-12-29T21:06:19.761Z,4.50
2018-12-29T21:08:46.252Z,4.07
2018-12-29T21:11:12.320Z,4.43
2018-12-29T21:13:38.539Z,4.13
2018-12-29T21:16:04.627Z,4.00
2018-12-29T21:18:30.683Z,3.57
2018-12-29T21:20:56.968Z,4.03
2018-12-29T21:23:23.109Z,4.07
2018-12-29T21:25:49.260Z,3.47
2018-12-29T21:28:15.320Z,4.13
2018-12-29T21:30:41.479Z,4.20
2018-12-29T21:33:07.778Z,4.37
2018-12-29T21:35:33.835Z,4.20
2018-12-29T21:38:00.276Z,3.63
2018-12-29T21:40:26.459Z,3.87
2018-12-29T21:42:52.491Z,4.17
2018-12-29T21:45:18.722Z,3.57
2018-12-29T21:47:44.782Z,3.73
2018-12-29T21:50:10.920Z,4.17
2018-12-29T21:52:37.068Z,4.07
2018-12-29T21:55:03.221Z,4.47
2018-12-29T21:57:29.371Z,4.83
2018-12-29T21:59:55.570Z,4.13
2018-12-29T22:02:21.699Z,4.80
2018-12-29T22:04:47.765Z,3.90
2018-12-29T22:07:13.902Z,4.43
2018-12-29T22:09:40.055Z,3.87
2018-12-29T22:12:06.406Z,4.50
2018-12-29T22:14:32.539Z,4.33
2018-12-29T22:17:18.473Z,3.93
2018-12-29T22:19:44.617Z,4.20
2018-12-29T22:22:10.785Z,3.63
2018-12-29T22:24:36.920Z,4.23
2018-12-29T22:27:02.967Z,4.27
2018-12-29T22:29:29.445Z,4.80
2018-12-29T22:31:55.507Z,4.60
2018-12-29T22:34:21.547Z,4.67
2018-12-29T22:36:47.617Z,3.77
2018-12-29T22:39:13.763Z,3.90
2018-12-29T22:41:40.214Z,3.70
2018-12-29T22:44:06.370Z,4.43
2018-12-29T22:46:32.784Z,3.70
2018-12-29T22:48:58.932Z,4.17
2018-12-29T22:51:24.976Z,4.20
2018-12-29T22:53:51.051Z,4.13
2018-12-29T22:56:17.297Z,4.47
2018-12-29T22:58:43.736Z,4.43
2018-12-29T23:01:09.879Z,4.33
2018-12-29T23:03:36.330Z,4.70
2018-12-29T23:06:02.480Z,3.73
2018-12-29T23:08:28.640Z,4.50
2018-12-29T23:10:55.103Z,4.03
2018-12-29T23:13:21.139Z,3.77
2018-12-29T23:15:47.291Z,4.10
2018-12-29T23:18:13.440Z,3.80
2018-12-29T23:20:39.892Z,4.70
2018-12-29T23:23:06.051Z,4.53
2018-12-29T23:25:32.532Z,4.67
2018-12-29T23:27:58.678Z,4.10
2018-12-29T23:30:25.093Z,3.70
2018-12-29T23:32:51.140Z,5.33
2018-12-29T23:35:17.193Z,5.73
2018-12-29T23:37:43.362Z,4.50
2018-12-29T23:40:09.504Z,4.30
2018-12-29T23:42:35.643Z,3.97
2018-12-29T23:45:02.109Z,3.77
2018-12-29T23:47:28.548Z,4.90
2018-12-29T23:49:54.704Z,4.33
2018-12-29T23:52:20.765Z,3.70
2018-12-29T23:54:46.920Z,3.93
2018-12-29T23:57:13.340Z,4.33
2018-12-29T23:59:39.496Z,3.70
